createdAt,value
2022-09-11T00:04:22.331Z,14.25
2022-09-11T00:09:32.326Z,17.50
2022-09-11T00:14:36.174Z,18.25
2022-09-11T07:50:58.937Z,32.22
2022-09-11T07:56:06.466Z,31.55
2022-09-11T08:01:13.264Z,27.88
2022-09-11T08:06:22.499Z,26.63
2022-09-11T08:11:30.298Z,27.92
2022-09-11T08:16:36.250Z,28.42
2022-09-11T08:21:42.372Z,27.02
2022-09-11T08:26:49.137Z,23.33
2022-09-11T08:32:02.102Z,27.08
2022-09-11T08:37:08.908Z,28.17
2022-09-11T08:42:16.489Z,26.15
2022-09-11T08:47:25.418Z,27.02
2022-09-11T08:52:36.371Z,23.23
2022-09-11T08:57:48.101Z,22.33
2022-09-11T09:03:14.727Z,18.08
2022-09-11T09:08:37.244Z,24.58
2022-09-11T09:14:05.851Z,22.95
2022-09-11T09:19:17.106Z,23.13
2022-09-11T09:24:26.135Z,23.70
2022-09-11T09:29:38.135Z,25.13
2022-09-11T09:34:46.771Z,19.88
2022-09-11T09:39:54.994Z,20.88
2022-09-11T09:45:27.622Z,18.50
2022-09-11T09:50:35.208Z,20.80
2022-09-11T09:55:43.513Z,19.42
2022-09-11T10:00:47.266Z,15.57
2022-09-11T10:05:54.502Z,16.30
2022-09-11T10:11:01.298Z,18.90
2022-09-11T10:16:06.806Z,18.63
2022-09-11T10:21:33.529Z,15.95
2022-09-11T10:26:45.868Z,17.88
2022-09-11T10:31:51.543Z,16.45
2022-09-11T10:37:03.235Z,16.50
2022-09-11T10:42:16.700Z,16.48
2022-09-11T10:47:26.073Z,15.90
2022-09-11T10:52:31.061Z,15.80
2022-09-11T10:57:42.268Z,14.57
2022-09-11T11:02:47.762Z,13.07
2022-09-11T11:08:20.830Z,12.57
2022-09-11T11:13:45.246Z,15.02
2022-09-11T11:19:18.697Z,11.57
2022-09-11T11:24:36.572Z,9.95
2022-09-11T11:30:03.354Z,10.68
2022-09-11T11:35:21.455Z,10.18
2022-09-11T11:40:29.936Z,10.20
2022-09-11T11:45:40.481Z,11.57
2022-09-11T11:50:50.229Z,9.13
2022-09-11T11:56:11.716Z,8.30
2022-09-11T12:01:29.559Z,9.25
2022-09-11T12:06:33.245Z,7.57
2022-09-11T12:11:39.151Z,7.15
2022-09-11T12:16:44.364Z,8.00
2022-09-11T12:22:07.360Z,6.38
2022-09-11T12:27:34.645Z,8.15
2022-09-11T12:32:45.275Z,8.35
2022-09-11T12:37:55.748Z,5.90
2022-09-11T12:43:17.555Z,8.48
2022-09-11T12:48:26.053Z,7.53
2022-09-11T12:53:34.017Z,6.82
2022-09-11T12:58:40.736Z,7.80
2022-09-11T13:03:58.148Z,6.97
2022-09-11T13:09:03.813Z,8.02
2022-09-11T13:14:42.369Z,8.38
2022-09-11T13:19:47.402Z,9.75
2022-09-11T13:24:51.426Z,10.90
2022-09-11T13:29:57.612Z,8.75
2022-09-11T13:35:07.910Z,6.88
2022-09-11T13:40:20.859Z,6.90
2022-09-11T13:45:26.257Z,7.50
2022-09-11T13:50:32.112Z,7.00
2022-09-11T13:55:35.784Z,8.77
2022-09-11T14:00:41.847Z,4.28
2022-09-11T14:05:53.925Z,3.72
2022-09-11T14:11:01.170Z,3.65
2022-09-11T14:16:10.661Z,6.07
2022-09-11T14:21:20.318Z,3.88
2022-09-11T14:26:25.954Z,5.43
2022-09-11T14:31:38.621Z,4.57
2022-09-11T14:36:47.766Z,4.55
2022-09-11T14:41:51.866Z,3.25
2022-09-11T14:46:59.691Z,6.65
2022-09-11T14:52:08.003Z,4.40
2022-09-11T14:57:19.828Z,7.78
2022-09-11T15:02:26.953Z,12.18
2022-09-11T15:07:35.487Z,10.95
2022-09-11T15:12:40.932Z,12.57
2022-09-11T15:22:52.482Z,10.90
2022-09-11T15:27:56.682Z,11.48
2022-09-11T15:33:01.165Z,10.35
2022-09-11T15:38:06.644Z,10.52
2022-09-11T15:43:11.124Z,12.18
2022-09-11T15:53:21.601Z,13.98
2022-09-11T15:58:27.982Z,11.30
2022-09-11T16:03:34.513Z,13.00
2022-09-11T16:08:40.895Z,12.18
2022-09-11T16:13:50.608Z,14.30
2022-09-11T16:18:58.484Z,11.70
2022-09-11T16:24:04.364Z,7.65
2022-09-11T16:29:11.953Z,9.93
2022-09-11T16:34:20.534Z,7.78
2022-09-11T16:39:27.424Z,6.75
2022-09-11T16:44:32.833Z,6.43
2022-09-11T16:50:05.460Z,7.47
2022-09-11T17:07:36.238Z,9.38
2022-09-11T17:36:32.492Z,9.05
2022-09-11T17:41:39.841Z,7.20
2022-09-11T17:46:49.811Z,18.73
2022-09-11T17:51:59.160Z,11.93
2022-09-11T17:57:03.958Z,10.00
2022-09-11T18:02:08.959Z,9.82
2022-09-11T18:07:23.684Z,12.02
2022-09-11T18:12:35.184Z,12.00
2022-09-11T18:17:42.962Z,14.23
2022-09-11T18:22:50.523Z,12.23
2022-09-11T18:27:56.925Z,16.15
2022-09-11T18:38:55.002Z,14.20
2022-09-11T18:44:05.948Z,17.50
2022-09-11T18:49:11.078Z,15.77
2022-09-11T18:54:21.225Z,20.50
2022-09-11T18:59:27.667Z,19.50
2022-09-11T19:04:34.840Z,11.20
2022-09-11T19:09:46.021Z,15.18
2022-09-11T19:14:51.908Z,13.85
2022-09-11T19:20:01.204Z,14.93
2022-09-11T19:25:31.803Z,15.32
2022-09-11T19:30:56.424Z,20.95
2022-09-11T19:36:03.995Z,13.80
2022-09-11T19:41:21.660Z,12.40
2022-09-11T19:46:31.208Z,13.30
2022-09-11T19:51:39.215Z,17.15
2022-09-11T19:56:46.878Z,15.48
2022-09-11T20:01:52.237Z,12.88
2022-09-11T20:06:56.351Z,13.95
2022-09-11T20:12:02.504Z,16.27
2022-09-11T20:17:09.337Z,14.60
2022-09-11T20:22:31.099Z,13.25
2022-09-11T20:27:37.417Z,15.48
2022-09-11T20:32:46.781Z,13.40
2022-09-11T20:37:52.922Z,13.82
2022-09-11T20:43:00.904Z,14.75
2022-09-11T20:48:06.397Z,15.30
2022-09-11T20:53:14.937Z,14.02
2022-09-11T20:58:25.547Z,12.65
2022-09-11T21:03:35.470Z,11.68
2022-09-11T21:09:22.141Z,11.27
2022-09-11T21:14:38.240Z,12.13
2022-09-11T21:19:57.403Z,8.93
2022-09-11T21:38:25.454Z,7.10
2022-09-11T21:43:38.548Z,12.80
2022-09-11T21:48:57.587Z,6.63
2022-09-11T21:54:46.362Z,8.45
2022-09-11T22:05:33.465Z,8.52
2022-09-11T22:10:55.987Z,7.50
2022-09-11T22:16:15.132Z,8.90
2022-09-11T22:21:39.029Z,5.78
2022-09-11T22:27:25.321Z,6.10
2022-09-11T22:32:43.376Z,7.50
2022-09-11T22:43:18.016Z,11.43
2022-09-11T22:48:32.951Z,6.22
2022-09-11T22:53:43.847Z,6.07
2022-09-11T23:04:12.220Z,11.48
